Time;durP1;ratioP1;P1;durP2;ratioP2;P2;SDS_P1;SDS_P2;PMS_P1;PMS_P2;Temp;Humidity;BMP_temperature;BMP_pressure;BME280_temperature;BME280_humidity;BME280_pressure;Samples;Min_cycle;Max_cycle;Signal;HPM_P1;HPM_P2
2021/07/20 00:00:12;;;;;;;10.13;4.33;;;17.20;99.90;;;;;;5056942;28;20485;-79
2021/07/20 00:02:42;;;;;;;7.33;4.90;;;17.50;99.90;;;;;;5056120;28;20465;-79
2021/07/20 00:05:12;;;;;;;10.17;4.53;;;17.60;99.90;;;;;;5057888;28;20477;-78
2021/07/20 00:07:39;;;;;;;7.33;4.70;;;17.30;99.90;;;;;;5062689;28;20444;-78
2021/07/20 00:10:08;;;;;;;6.80;3.90;;;17.30;99.90;;;;;;5062250;28;20442;-78
2021/07/20 00:12:35;;;;;;;5.77;3.93;;;17.60;99.90;;;;;;5062762;28;20513;-78
2021/07/20 00:15:02;;;;;;;5.90;3.97;;;17.40;99.90;;;;;;5056916;28;20450;-79
2021/07/20 00:17:29;;;;;;;7.53;5.00;;;17.40;99.90;;;;;;5055256;28;20960;-79
2021/07/20 00:19:55;;;;;;;6.93;4.80;;;17.50;99.90;;;;;;5055865;28;20544;-79
2021/07/20 00:22:23;;;;;;;8.70;4.37;;;17.60;99.90;;;;;;5055101;28;20478;-79
2021/07/20 00:24:50;;;;;;;5.97;5.40;;;17.60;99.90;;;;;;5055364;28;20501;-79
2021/07/20 00:27:16;;;;;;;5.10;4.13;;;17.60;99.90;;;;;;5055318;28;20968;-79
2021/07/20 00:29:43;;;;;;;13.77;4.10;;;17.60;99.90;;;;;;5055212;28;20489;-79
2021/07/20 00:32:10;;;;;;;5.80;3.80;;;17.60;99.90;;;;;;5055020;28;21067;-79
2021/07/20 00:34:38;;;;;;;7.10;3.73;;;17.60;99.90;;;;;;5055637;28;20516;-78
2021/07/20 00:37:05;;;;;;;7.67;4.30;;;17.60;99.90;;;;;;5056060;28;20458;-79
2021/07/20 00:39:33;;;;;;;4.27;3.70;;;17.50;99.90;;;;;;5057184;28;20438;-78
2021/07/20 00:42:01;;;;;;;5.47;3.50;;;17.50;99.90;;;;;;5057425;28;20485;-78
2021/07/20 00:44:28;;;;;;;9.87;4.63;;;17.50;99.90;;;;;;5059002;28;20851;-78
2021/07/20 00:46:54;;;;;;;4.40;3.97;;;17.50;99.90;;;;;;5061401;28;20446;-79
2021/07/20 00:49:21;;;;;;;4.13;3.67;;;17.50;99.90;;;;;;5057544;28;20442;-79
2021/07/20 00:51:47;;;;;;;3.70;3.27;;;17.50;99.90;;;;;;5057081;28;20477;-79
2021/07/20 00:54:14;;;;;;;4.93;4.43;;;17.60;99.90;;;;;;5055138;28;20528;-79
2021/07/20 00:56:42;;;;;;;4.50;4.10;;;17.60;99.90;;;;;;5054917;28;20470;-79
2021/07/20 00:59:10;;;;;;;4.70;4.10;;;17.60;99.90;;;;;;5056432;28;20450;-77
2021/07/20 01:01:37;;;;;;;4.63;3.87;;;17.60;99.90;;;;;;5056563;28;20481;-78
2021/07/20 01:04:04;;;;;;;4.77;4.27;;;;;;;;;;5057140;28;20512;-79
2021/07/20 01:06:34;;;;;;;4.50;4.10;;;17.50;99.90;;;;;;5056073;28;20482;-79
2021/07/20 01:09:02;;;;;;;6.20;4.30;;;17.50;99.90;;;;;;5055245;28;20557;-79
2021/07/20 01:11:30;;;;;;;5.13;3.80;;;17.50;99.90;;;;;;5057205;28;20462;-79
2021/07/20 01:13:58;;;;;;;6.27;4.10;;;17.50;99.90;;;;;;5055073;28;20612;-79
2021/07/20 01:16:26;;;;;;;4.40;4.00;;;17.50;99.90;;;;;;5055252;28;20474;-79
2021/07/20 01:18:52;;;;;;;6.53;4.13;;;17.50;99.90;;;;;;5054054;28;20450;-79
2021/07/20 01:21:20;;;;;;;4.80;4.20;;;17.50;99.90;;;;;;5054024;28;20887;-79
2021/07/20 01:23:51;;;;;;;5.67;4.07;;;17.50;99.90;;;;;;5053860;28;20489;-79
2021/07/20 01:26:17;;;;;;;5.67;5.17;;;17.50;99.90;;;;;;5054292;28;20457;-79
2021/07/20 01:28:46;;;;;;;9.43;4.70;;;17.40;99.90;;;;;;5053849;28;20484;-79
2021/07/20 01:31:17;;;;;;;6.17;4.20;;;17.40;99.90;;;;;;5053872;28;20484;-78
2021/07/20 01:33:47;;;;;;;6.30;4.70;;;17.50;99.90;;;;;;5054304;28;20525;-79
2021/07/20 01:36:16;;;;;;;5.63;4.50;;;17.40;99.90;;;;;;5054739;28;20944;-79
2021/07/20 01:38:43;;;;;;;8.05;5.05;;;17.40;99.90;;;;;;5054581;28;20476;-78
2021/07/20 01:41:15;;;;;;;6.30;3.73;;;17.50;99.90;;;;;;5055258;28;20208;-79
2021/07/20 01:43:45;;;;;;;8.17;4.27;;;17.40;99.90;;;;;;5054403;28;20580;-79
2021/07/20 01:46:13;;;;;;;7.73;4.90;;;17.50;99.90;;;;;;5054881;28;20496;-80
2021/07/20 01:48:43;;;;;;;6.63;4.30;;;17.50;99.90;;;;;;5054439;28;20793;-79
2021/07/20 01:51:11;;;;;;;7.03;3.87;;;17.40;99.90;;;;;;5056363;28;20483;-79
2021/07/20 01:53:38;;;;;;;4.00;3.30;;;17.60;99.90;;;;;;5057734;28;20486;-79
2021/07/20 01:56:08;;;;;;;4.40;3.50;;;17.60;99.90;;;;;;5058500;28;20473;-78
2021/07/20 01:58:42;;;;;;;3.70;3.37;;;17.60;99.90;;;;;;5058431;28;20450;-77
2021/07/20 02:01:11;;;;;;;4.00;3.30;;;17.60;99.90;;;;;;5062437;28;20454;-79
2021/07/20 02:03:59;;;;;;;5.30;3.53;;;17.50;99.90;;;;;;5058467;28;20466;-79
2021/07/20 02:09:15;;;;;;;4.47;3.30;;;17.40;99.90;;;;;;5058305;28;20407;-79
2021/07/20 02:11:45;;;;;;;4.03;3.63;;;17.30;99.90;;;;;;5058003;28;20430;-79
2021/07/20 02:14:15;;;;;;;3.97;3.07;;;17.40;99.90;;;;;;5057728;28;20451;-78
2021/07/20 02:16:45;;;;;;;3.57;3.27;;;17.30;99.90;;;;;;5057719;28;20448;-78
2021/07/20 02:19:20;;;;;;;4.87;4.20;;;17.40;99.90;;;;;;5060933;28;20469;-77
2021/07/20 02:21:51;;;;;;;4.07;3.60;;;17.30;99.90;;;;;;5064922;28;20422;-78
2021/07/20 02:24:18;;;;;;;7.30;4.77;;;17.30;99.90;;;;;;5065050;28;20466;-78
2021/07/20 02:26:47;;;;;;;5.40;4.07;;;17.30;99.90;;;;;;5061546;28;20489;-78
2021/07/20 02:29:17;;;;;;;7.50;4.63;;;17.30;99.90;;;;;;5058369;28;20508;-79
2021/07/20 02:31:45;;;;;;;6.47;3.57;;;17.30;99.90;;;;;;5062929;28;20870;-78
2021/07/20 02:34:13;;;;;;;6.83;3.83;;;17.40;99.90;;;;;;5057756;28;20536;-79
2021/07/20 02:36:40;;;;;;;7.33;3.70;;;17.50;99.90;;;;;;5057286;28;20503;-78
2021/07/20 02:39:08;;;;;;;7.13;3.70;;;17.50;99.90;;;;;;5064703;28;20453;-78
2021/07/20 02:41:36;;;;;;;5.23;4.10;;;17.50;99.90;;;;;;5061369;28;20451;-77
2021/07/20 02:44:06;;;;;;;4.57;4.10;;;17.40;99.90;;;;;;5061149;28;20996;-78
2021/07/20 02:46:36;;;;;;;9.03;4.47;;;17.30;99.90;;;;;;5059397;28;20452;-78
2021/07/20 02:49:03;;;;;;;7.60;4.10;;;17.30;99.90;;;;;;5057592;28;20880;-79
2021/07/20 02:51:31;;;;;;;5.00;3.93;;;17.20;99.90;;;;;;5057457;28;20496;-79
2021/07/20 02:54:01;;;;;;;9.13;3.40;;;17.30;99.90;;;;;;5057129;28;20526;-79
2021/07/20 02:56:29;;;;;;;3.90;3.40;;;17.30;99.90;;;;;;5060358;28;20458;-80
2021/07/20 02:59:00;;;;;;;4.60;3.53;;;17.40;99.90;;;;;;5057064;28;20478;-79
2021/07/20 03:01:28;;;;;;;6.20;3.20;;;17.40;99.90;;;;;;5057490;28;20480;-79
2021/07/20 03:03:56;;;;;;;4.77;3.10;;;17.20;99.90;;;;;;5056570;28;20490;-79
2021/07/20 03:06:25;;;;;;;6.87;4.77;;;17.20;99.90;;;;;;5056992;28;20488;-79
2021/07/20 03:08:58;;;;;;;6.90;3.77;;;17.30;99.90;;;;;;5056611;28;20442;-79
2021/07/20 03:11:28;;;;;;;5.50;4.40;;;17.50;99.90;;;;;;5056814;28;20442;-79
2021/07/20 03:13:58;;;;;;;4.23;3.03;;;17.50;99.90;;;;;;5056625;28;20517;-79
2021/07/20 03:16:26;;;;;;;4.78;3.30;;;17.40;99.90;;;;;;5055977;28;20857;-79
2021/07/20 03:18:53;;;;;;;4.47;3.43;;;17.40;99.90;;;;;;5056578;28;20239;-79
2021/07/20 03:21:22;;;;;;;5.10;3.77;;;17.40;99.90;;;;;;5056448;28;20878;-79
2021/07/20 03:23:50;;;;;;;4.17;3.70;;;17.30;99.90;;;;;;5056480;28;20494;-79
2021/07/20 03:26:18;;;;;;;7.10;4.27;;;17.40;99.90;;;;;;5057525;28;20453;-78
2021/07/20 03:28:46;;;;;;;6.20;4.67;;;17.50;99.90;;;;;;5063221;28;20474;-78
2021/07/20 03:31:14;;;;;;;5.10;3.20;;;17.50;99.90;;;;;;5062232;28;20870;-78
2021/07/20 03:33:41;;;;;;;5.53;2.80;;;17.40;99.90;;;;;;5063173;28;20556;-78
2021/07/20 03:36:08;;;;;;;3.93;3.50;;;17.30;99.90;;;;;;5058955;28;20515;-78
2021/07/20 03:38:38;;;;;;;4.28;3.00;;;17.40;99.90;;;;;;5061257;28;20440;-80
2021/07/20 03:41:06;;;;;;;4.07;3.60;;;17.30;99.90;;;;;;5057991;28;20200;-80
2021/07/20 03:43:33;;;;;;;7.90;3.47;;;17.30;99.90;;;;;;5056676;28;20465;-79
2021/07/20 03:46:01;;;;;;;8.57;3.30;;;17.20;99.90;;;;;;5056241;28;20978;-79
2021/07/20 03:48:29;;;;;;;7.27;3.33;;;17.20;99.90;;;;;;5056540;28;20457;-79
2021/07/20 03:50:57;;;;;;;10.23;3.87;;;17.10;99.90;;;;;;5056087;28;20469;-79
2021/07/20 03:53:26;;;;;;;6.67;3.70;;;17.10;99.90;;;;;;5057540;28;20486;-80
2021/07/20 03:55:58;;;;;;;4.90;3.93;;;17.10;99.90;;;;;;5058747;28;20446;-78
2021/07/20 03:58:26;;;;;;;6.10;4.60;;;17.20;99.90;;;;;;5059280;28;20427;-78
2021/07/20 04:00:55;;;;;;;4.60;3.77;;;17.20;99.90;;;;;;5060193;28;20940;-78
2021/07/20 04:03:27;;;;;;;6.00;3.40;;;17.30;99.90;;;;;;5060479;28;20885;-78
2021/07/20 04:05:58;;;;;;;3.40;2.83;;;17.40;99.90;;;;;;5059416;28;20423;-78
2021/07/20 04:08:26;;;;;;;7.10;4.73;;;17.30;99.90;;;;;;5060622;28;20651;-78
2021/07/20 04:10:55;;;;;;;8.10;4.23;;;17.40;99.90;;;;;;5062429;28;20442;-78
2021/07/20 04:13:22;;;;;;;5.90;3.40;;;17.60;99.90;;;;;;5058733;28;20492;-78
2021/07/20 04:15:51;;;;;;;2.80;2.57;;;17.30;99.90;;;;;;5060542;28;20470;-78
2021/07/20 04:18:18;;;;;;;9.00;3.37;;;17.10;99.90;;;;;;5057369;28;20481;-79
2021/07/20 04:20:46;;;;;;;7.07;3.20;;;17.20;99.90;;;;;;5055993;28;20484;-79
2021/07/20 04:23:14;;;;;;;5.23;4.10;;;17.10;99.90;;;;;;5055517;28;20502;-79
2021/07/20 04:25:44;;;;;;;3.60;2.90;;;17.00;99.90;;;;;;5064144;28;20480;-79
2021/07/20 04:28:14;;;;;;;6.97;3.80;;;17.00;99.90;;;;;;5056367;28;20924;-79
2021/07/20 04:30:42;;;;;;;5.53;4.60;;;17.10;99.90;;;;;;5056454;28;20477;-79
2021/07/20 04:33:10;;;;;;;7.37;4.53;;;17.10;99.90;;;;;;5055944;28;20597;-79
2021/07/20 04:35:37;;;;;;;4.87;4.37;;;17.10;99.90;;;;;;5055342;28;20469;-79
2021/07/20 04:38:04;;;;;;;10.30;4.37;;;17.10;99.90;;;;;;5054852;28;20508;-78
2021/07/20 04:40:32;;;;;;;5.63;3.83;;;17.00;99.90;;;;;;5054308;28;20497;-79
2021/07/20 04:42:59;;;;;;;6.20;5.30;;;17.00;99.90;;;;;;5055091;28;20505;-79
2021/07/20 04:45:29;;;;;;;6.77;4.13;;;17.00;99.90;;;;;;5055470;28;20540;-79
2021/07/20 04:47:56;;;;;;;7.57;5.60;;;16.90;99.90;;;;;;5055139;28;20426;-79
2021/07/20 04:50:27;;;;;;;6.60;4.30;;;17.10;99.90;;;;;;5055650;28;20442;-79
2021/07/20 04:52:55;;;;;;;9.07;4.40;;;17.10;99.90;;;;;;5056094;28;20580;-79
2021/07/20 04:55:23;;;;;;;6.90;5.33;;;17.00;99.90;;;;;;5056527;28;20477;-79
2021/07/20 04:57:50;;;;;;;5.20;4.70;;;17.30;99.90;;;;;;5076219;22;20968;-81
2021/07/20 05:00:18;;;;;;;9.80;5.70;;;17.00;99.90;;;;;;5038070;28;20423;-79
2021/07/20 05:02:47;;;;;;;6.57;3.97;;;17.40;99.90;;;;;;5037938;28;20949;-79
2021/07/20 05:05:16;;;;;;;9.57;5.53;;;17.00;99.90;;;;;;5037864;28;20454;-79
2021/07/20 05:07:44;;;;;;;6.90;4.87;;;17.10;99.90;;;;;;5038209;28;20443;-80
2021/07/20 05:10:13;;;;;;;6.03;4.47;;;17.00;99.90;;;;;;5036799;28;20482;-80
2021/07/20 05:12:41;;;;;;;5.80;4.87;;;17.00;99.90;;;;;;5037560;28;20837;-79
2021/07/20 05:15:08;;;;;;;4.40;4.00;;;17.00;99.90;;;;;;5037748;28;20439;-78
2021/07/20 05:17:36;;;;;;;5.97;4.70;;;17.20;99.90;;;;;;5036675;28;20485;-80
2021/07/20 05:20:06;;;;;;;12.37;5.63;;;17.10;99.90;;;;;;5036915;28;20468;-79
2021/07/20 05:22:35;;;;;;;7.00;5.07;;;17.10;99.90;;;;;;5037581;28;20497;-81
2021/07/20 05:25:02;;;;;;;4.50;4.10;;;17.10;99.90;;;;;;5052093;28;20439;-80
2021/07/20 05:27:31;;;;;;;7.27;4.27;;;17.20;99.90;;;;;;5046824;28;20446;-81
2021/07/20 05:29:59;;;;;;;6.13;4.67;;;17.30;99.90;;;;;;5042434;28;20787;-81
2021/07/20 05:32:26;;;;;;;16.20;5.07;;;17.20;99.90;;;;;;5043115;28;20442;-82
2021/07/20 05:34:54;;;;;;;9.87;4.07;;;17.30;99.90;;;;;;5040110;28;20639;-79
2021/07/20 05:37:22;;;;;;;4.53;4.10;;;17.20;99.90;;;;;;5039973;28;20573;-79
2021/07/20 05:39:49;;;;;;;15.37;5.27;;;17.20;99.90;;;;;;5040070;28;20508;-78
2021/07/20 05:42:17;;;;;;;5.40;4.00;;;17.20;99.90;;;;;;5040335;28;20435;-79
2021/07/20 05:44:45;;;;;;;7.20;5.03;;;17.30;99.90;;;;;;5039364;28;20453;-79
2021/07/20 05:47:13;;;;;;;4.70;4.30;;;17.40;99.90;;;;;;5039752;28;20474;-80
2021/07/20 05:49:40;;;;;;;4.77;4.33;;;17.50;99.90;;;;;;5039210;28;20470;-80
2021/07/20 05:52:07;;;;;;;4.65;4.18;;;17.60;99.90;;;;;;5039731;28;20442;-82
2021/07/20 05:54:37;;;;;;;4.30;3.90;;;17.60;99.90;;;;;;5040079;28;20228;-80
2021/07/20 05:57:05;;;;;;;7.00;4.80;;;17.60;99.90;;;;;;5040903;28;20435;-80
2021/07/20 05:59:31;;;;;;;5.53;4.23;;;17.40;99.90;;;;;;5040656;28;20482;-80
2021/07/20 06:01:58;;;;;;;11.60;4.77;;;17.60;99.90;;;;;;5039773;28;20458;-81
2021/07/20 06:04:27;;;;;;;5.10;4.00;;;17.60;99.90;;;;;;5039485;28;20439;-80
2021/07/20 06:06:53;;;;;;;5.30;4.43;;;17.70;99.90;;;;;;5040606;28;20443;-79
2021/07/20 06:09:21;;;;;;;6.73;4.07;;;17.80;99.90;;;;;;5038970;28;20471;-79
2021/07/20 06:11:50;;;;;;;4.10;3.80;;;17.60;99.90;;;;;;5040260;28;20545;-80
2021/07/20 06:14:18;;;;;;;6.07;3.83;;;17.60;99.90;;;;;;5041322;28;20505;-81
2021/07/20 06:16:45;;;;;;;4.73;4.33;;;17.60;99.90;;;;;;5041682;28;20705;-80
2021/07/20 06:19:12;;;;;;;8.10;4.23;;;17.70;99.90;;;;;;5041036;28;20533;-81
2021/07/20 06:21:40;;;;;;;5.47;4.50;;;17.60;99.90;;;;;;5040099;28;20482;-81
2021/07/20 06:24:08;;;;;;;8.53;4.70;;;17.60;99.90;;;;;;5042853;28;20470;-80
2021/07/20 06:26:36;;;;;;;7.03;4.63;;;17.70;99.90;;;;;;5040359;28;20454;-80
2021/07/20 06:29:09;;;;;;;4.17;3.87;;;17.90;99.90;;;;;;5041954;28;20525;-80
2021/07/20 06:31:39;;;;;;;7.00;4.63;;;17.80;99.90;;;;;;5040217;28;20439;-80
2021/07/20 06:34:07;;;;;;;7.97;3.90;;;17.80;99.90;;;;;;5040806;28;20468;-81
2021/07/20 06:36:36;;;;;;;9.20;4.30;;;17.70;99.90;;;;;;5040834;28;20513;-81
2021/07/20 06:39:04;;;;;;;7.77;4.17;;;17.80;99.90;;;;;;5049873;28;20470;-80
2021/07/20 06:41:34;;;;;;;6.20;4.43;;;17.80;99.90;;;;;;5050370;28;20451;-79
2021/07/20 06:44:00;;;;;;;5.40;4.20;;;17.80;99.90;;;;;;5045513;28;20447;-78
2021/07/20 06:46:29;;;;;;;6.10;4.90;;;17.80;99.90;;;;;;5046698;28;20465;-79
2021/07/20 06:48:56;;;;;;;5.70;5.20;;;17.90;99.90;;;;;;5041616;28;20501;-79
2021/07/20 06:51:23;;;;;;;4.57;3.63;;;18.00;99.90;;;;;;5042300;28;20953;-81
2021/07/20 06:53:51;;;;;;;7.73;3.80;;;17.90;99.90;;;;;;5040224;28;20480;-79
2021/07/20 06:56:24;;;;;;;6.97;4.10;;;18.10;99.90;;;;;;5040521;28;20470;-80
2021/07/20 06:58:52;;;;;;;4.43;3.90;;;18.00;99.90;;;;;;5040649;28;20532;-80
2021/07/20 07:01:21;;;;;;;6.80;4.70;;;18.00;99.90;;;;;;5039185;28;20523;-80
2021/07/20 07:03:58;;;;;;;8.57;4.63;;;18.10;99.90;;;;;;5039412;28;20503;-80
2021/07/20 07:06:27;;;;;;;6.03;3.03;;;18.20;99.90;;;;;;5039380;28;20470;-79
2021/07/20 07:08:55;;;;;;;5.33;3.60;;;18.40;99.90;;;;;;5039847;28;20474;-80
2021/07/20 07:11:22;;;;;;;6.13;3.70;;;18.40;99.90;;;;;;5040223;28;20517;-80
2021/07/20 07:13:49;;;;;;;4.77;3.67;;;18.40;99.90;;;;;;5040472;28;20479;-80
2021/07/20 07:16:19;;;;;;;5.60;3.77;;;18.50;99.90;;;;;;5042737;28;20545;-78
2021/07/20 07:18:46;;;;;;;11.33;3.33;;;18.60;99.90;;;;;;5042780;28;20562;-78
2021/07/20 07:21:15;;;;;;;5.47;3.80;;;18.60;99.90;;;;;;5042030;28;20443;-78
2021/07/20 07:23:45;;;;;;;6.83;4.10;;;18.70;99.90;;;;;;5042117;28;20481;-78
2021/07/20 07:26:14;;;;;;;4.63;3.33;;;18.80;99.90;;;;;;5043331;28;20470;-78
2021/07/20 07:28:42;;;;;;;5.63;4.07;;;18.90;99.90;;;;;;5041958;28;20476;-78
2021/07/20 07:31:10;;;;;;;9.18;5.70;;;19.00;99.90;;;;;;5043687;28;20438;-79
2021/07/20 07:33:37;;;;;;;11.80;6.80;;;19.10;99.90;;;;;;5048011;28;20565;-78
2021/07/20 07:36:05;;;;;;;6.70;3.67;;;19.10;99.90;;;;;;5046980;28;20447;-79
2021/07/20 07:38:35;;;;;;;4.20;3.13;;;18.90;99.90;;;;;;5040983;28;20502;-80
2021/07/20 07:41:03;;;;;;;5.70;4.17;;;18.90;99.90;;;;;;5042045;28;20419;-80
2021/07/20 07:43:34;;;;;;;4.77;3.37;;;18.80;99.90;;;;;;5040380;28;20478;-80
2021/07/20 07:46:02;;;;;;;3.20;2.90;;;18.90;99.90;;;;;;5039964;28;20435;-79
2021/07/20 07:48:36;;;;;;;3.63;3.17;;;19.00;99.90;;;;;;5041540;28;20459;-78
2021/07/20 07:51:06;;;;;;;3.77;3.40;;;18.90;99.90;;;;;;5044893;28;20458;-80
2021/07/20 07:53:36;;;;;;;3.47;2.97;;;19.00;99.90;;;;;;5054812;28;20461;-80
2021/07/20 07:56:03;;;;;;;2.83;2.37;;;19.10;99.90;;;;;;5053052;28;20482;-79
2021/07/20 07:58:31;;;;;;;3.30;2.67;;;19.00;99.90;;;;;;5047584;28;20487;-81
2021/07/20 08:00:59;;;;;;;5.30;3.73;;;18.90;99.90;;;;;;5048200;28;20462;-82
2021/07/20 08:03:29;;;;;;;3.50;2.97;;;19.00;99.90;;;;;;5051069;28;20470;-82
2021/07/20 08:05:56;;;;;;;4.00;3.07;;;18.90;99.90;;;;;;5047695;28;20446;-82
2021/07/20 08:08:24;;;;;;;3.90;3.10;;;19.00;99.90;;;;;;5047622;28;20474;-82
2021/07/20 08:10:52;;;;;;;5.70;4.23;;;19.00;99.90;;;;;;5046306;28;20817;-81
2021/07/20 08:13:21;;;;;;;8.20;4.30;;;19.10;99.90;;;;;;5046748;28;20443;-81
2021/07/20 08:15:51;;;;;;;6.10;2.80;;;19.10;99.90;;;;;;5045490;28;20479;-81
2021/07/20 08:18:21;;;;;;;3.73;2.77;;;19.30;99.90;;;;;;5046286;28;20469;-82
2021/07/20 08:20:51;;;;;;;4.40;3.00;;;19.40;99.90;;;;;;5046835;28;20489;-82
2021/07/20 08:23:21;;;;;;;3.70;3.10;;;19.40;99.90;;;;;;5046944;28;20434;-82
2021/07/20 08:25:53;;;;;;;3.20;2.83;;;19.30;99.90;;;;;;5045987;28;20910;-82
2021/07/20 08:28:27;;;;;;;3.87;3.47;;;19.30;99.90;;;;;;5043497;28;20471;-81
2021/07/20 08:31:01;;;;;;;5.13;3.13;;;19.30;99.90;;;;;;5047213;28;20438;-79
2021/07/20 08:33:31;;;;;;;3.77;3.47;;;19.20;99.90;;;;;;5044804;28;20431;-81
2021/07/20 08:36:02;;;;;;;5.17;3.60;;;19.30;99.90;;;;;;5043174;28;20864;-82
2021/07/20 08:38:30;;;;;;;8.43;3.37;;;19.30;99.90;;;;;;5043660;28;20455;-82
2021/07/20 08:41:10;;;;;;;3.13;2.83;;;19.30;99.90;;;;;;5043191;28;20451;-81
2021/07/20 08:43:50;;;;;;;6.57;4.90;;;19.20;99.90;;;;;;5041356;28;20435;-79
2021/07/20 08:46:38;;;;;;;5.90;4.87;;;19.60;99.90;;;;;;5045709;28;20503;-82
2021/07/20 08:49:15;;;;;;;5.77;3.40;;;19.40;99.90;;;;;;5043793;28;20467;-80
2021/07/20 08:51:49;;;;;;;6.03;4.33;;;19.40;99.90;;;;;;5042269;28;20435;-80
2021/07/20 08:54:24;;;;;;;9.80;3.37;;;19.40;99.90;;;;;;5042054;28;20467;-81
2021/07/20 08:56:53;;;;;;;3.93;2.77;;;19.30;99.90;;;;;;5042695;28;20430;-81
2021/07/20 08:59:23;;;;;;;7.07;2.87;;;19.40;99.90;;;;;;5043350;28;20474;-81
2021/07/20 09:01:54;;;;;;;5.67;3.60;;;19.40;99.90;;;;;;5043700;28;20447;-81
2021/07/20 09:04:22;;;;;;;5.50;3.57;;;19.50;99.90;;;;;;5045533;28;20435;-81
2021/07/20 09:07:03;;;;;;;3.87;3.10;;;19.40;99.90;;;;;;5056246;28;20458;-81
2021/07/20 09:09:35;;;;;;;3.50;3.20;;;19.80;99.90;;;;;;5048105;28;20467;-80
2021/07/20 09:12:07;;;;;;;4.03;2.90;;;20.00;99.90;;;;;;5050306;28;20436;-80
2021/07/20 09:14:36;;;;;;;5.10;3.23;;;20.10;99.90;;;;;;5056049;28;20455;-80
2021/07/20 09:17:09;;;;;;;4.20;3.40;;;20.30;99.90;;;;;;5054863;28;20446;-83
2021/07/20 09:19:40;;;;;;;3.83;3.43;;;20.10;99.90;;;;;;5048305;28;20462;-82
2021/07/20 09:22:11;;;;;;;5.43;2.93;;;20.10;99.90;;;;;;5046231;28;20945;-82
2021/07/20 09:24:45;;;;;;;6.60;3.17;;;19.80;99.90;;;;;;5046052;28;20435;-82
2021/07/20 09:27:21;;;;;;;6.30;3.20;;;20.30;99.90;;;;;;5046573;28;20462;-82
2021/07/20 09:29:53;;;;;;;5.53;3.70;;;20.40;99.90;;;;;;5044487;28;20478;-82
2021/07/20 09:32:32;;;;;;;3.50;3.20;;;20.50;99.90;;;;;;5044974;28;20497;-80
2021/07/20 09:35:06;;;;;;;6.17;3.10;;;20.60;99.90;;;;;;5046236;28;20471;-81
2021/07/20 09:37:39;;;;;;;3.93;3.27;;;20.60;99.90;;;;;;5051351;28;20435;-81
2021/07/20 09:40:25;;;;;;;7.03;3.80;;;20.30;99.90;;;;;;5050221;28;20444;-81
2021/07/20 09:43:04;;;;;;;8.93;3.50;;;20.20;99.90;;;;;;5048772;28;20431;-79
2021/07/20 09:45:35;;;;;;;4.33;3.90;;;20.20;99.90;;;;;;5046166;28;20428;-82
2021/07/20 09:48:11;;;;;;;3.90;3.60;;;20.10;99.90;;;;;;5045643;28;20466;-82
2021/07/20 09:50:46;;;;;;;4.80;3.60;;;20.20;99.90;;;;;;5054511;28;20442;-82
2021/07/20 09:53:48;;;;;;;5.33;3.20;;;20.20;99.90;;;;;;5051206;28;20442;-80
2021/07/20 09:56:38;;;;;;;3.80;3.50;;;20.10;99.90;;;;;;5049054;28;20475;-83
2021/07/20 09:59:22;;;;;;;3.77;3.37;;;20.10;99.90;;;;;;5051265;28;20486;-82
2021/07/20 10:01:54;;;;;;;5.80;3.90;;;20.10;99.90;;;;;;5051060;28;20435;-82
2021/07/20 10:04:28;;;;;;;3.43;2.97;;;20.00;99.90;;;;;;5050530;28;20435;-82
2021/07/20 10:07:00;;;;;;;6.40;2.70;;;20.40;99.90;;;;;;5054197;28;20458;-83
2021/07/20 10:09:34;;;;;;;3.97;3.00;;;20.30;99.90;;;;;;5052840;28;20485;-83
2021/07/20 10:12:03;;;;;;;5.03;2.87;;;20.30;99.90;;;;;;5054363;28;20435;-82
2021/07/20 10:14:44;;;;;;;3.93;2.70;;;20.40;99.90;;;;;;5053504;28;20477;-82
2021/07/20 10:17:21;;;;;;;5.23;3.30;;;20.30;99.90;;;;;;5055390;28;20446;-82
2021/07/20 10:19:52;;;;;;;4.40;3.93;;;20.30;99.90;;;;;;5055291;28;20508;-82
2021/07/20 10:22:25;;;;;;;4.38;2.70;;;20.20;99.90;;;;;;5053564;28;20498;-82
2021/07/20 10:24:58;;;;;;;2.87;2.63;;;20.40;99.90;;;;;;5051359;28;20212;-81
2021/07/20 10:27:32;;;;;;;2.70;2.50;;;20.40;99.90;;;;;;5052706;28;20435;-82
2021/07/20 10:30:06;;;;;;;3.67;3.30;;;20.30;99.90;;;;;;5057035;28;20189;-83
2021/07/20 10:32:43;;;;;;;5.13;3.13;;;20.10;99.90;;;;;;5056232;28;20429;-83
2021/07/20 10:35:18;;;;;;;3.67;3.30;;;20.00;99.90;;;;;;5053911;28;20504;-84
2021/07/20 10:37:47;;;;;;;3.37;3.17;;;19.60;99.90;;;;;;5053790;28;20431;-82
2021/07/20 10:40:18;;;;;;;4.13;2.93;;;19.90;99.90;;;;;;5052921;28;20427;-82
2021/07/20 10:42:49;;;;;;;4.00;2.87;;;20.20;99.90;;;;;;5051389;28;20435;-81
2021/07/20 10:45:19;;;;;;;6.20;3.13;;;20.40;99.90;;;;;;5050669;28;20428;-82
2021/07/20 10:47:51;;;;;;;5.23;3.23;;;20.00;99.90;;;;;;5050970;28;20445;-81
2021/07/20 10:50:26;;;;;;;4.23;3.37;;;20.40;99.90;;;;;;5046406;28;20900;-81
2021/07/20 10:53:01;;;;;;;4.10;3.30;;;20.40;99.90;;;;;;5048423;28;20435;-81
2021/07/20 10:55:36;;;;;;;4.63;4.20;;;20.60;99.90;;;;;;5056762;28;20467;-82
2021/07/20 10:58:14;;;;;;;4.10;3.53;;;20.50;99.90;;;;;;5063028;22;20502;-79
2021/07/20 11:00:52;;;;;;;5.73;4.10;;;20.30;99.90;;;;;;5059652;28;20438;-80
2021/07/20 11:03:28;;;;;;;4.20;2.80;;;20.30;99.90;;;;;;5059842;28;20430;-79
2021/07/20 11:05:57;;;;;;;3.47;3.17;;;20.30;99.90;;;;;;5066654;28;20411;-79
2021/07/20 11:08:24;;;;;;;3.43;3.10;;;20.00;99.90;;;;;;5064899;28;20458;-80
2021/07/20 11:10:54;;;;;;;3.50;3.20;;;20.00;99.90;;;;;;5065154;28;20473;-78
2021/07/20 11:13:25;;;;;;;5.40;3.30;;;20.00;99.90;;;;;;5069240;28;20418;-80
2021/07/20 11:15:54;;;;;;;4.53;3.60;;;20.00;99.90;;;;;;5070297;28;20476;-81
2021/07/20 11:18:24;;;;;;;3.23;2.93;;;20.10;99.90;;;;;;5075375;28;20493;-81
2021/07/20 11:20:54;;;;;;;7.27;3.00;;;20.10;99.90;;;;;;5062837;28;20456;-82
2021/07/20 11:23:22;;;;;;;3.40;3.10;;;20.10;99.90;;;;;;5059309;28;20541;-81
2021/07/20 11:25:50;;;;;;;6.57;3.97;;;20.00;99.90;;;;;;5058204;28;20446;-80
2021/07/20 11:28:18;;;;;;;3.57;3.27;;;20.00;99.90;;;;;;5057613;28;20468;-81
2021/07/20 11:30:48;;;;;;;6.30;3.10;;;20.10;99.90;;;;;;5058526;28;20449;-80
2021/07/20 11:33:19;;;;;;;7.33;3.80;;;20.10;99.90;;;;;;5060013;28;20446;-81
2021/07/20 11:35:50;;;;;;;4.53;4.13;;;20.00;99.90;;;;;;5058957;28;20504;-82
2021/07/20 11:38:23;;;;;;;8.93;5.63;;;20.00;99.90;;;;;;5059417;28;20824;-82
2021/07/20 11:40:58;;;;;;;3.30;3.00;;;20.10;99.90;;;;;;5059168;28;20430;-80
2021/07/20 11:43:32;;;;;;;4.43;3.10;;;20.10;99.90;;;;;;5058983;28;20437;-80
2021/07/20 11:46:01;;;;;;;3.80;3.33;;;20.10;99.90;;;;;;5058504;28;20571;-80
2021/07/20 11:48:33;;;;;;;4.37;3.57;;;19.90;99.90;;;;;;5059661;28;20470;-81
2021/07/20 11:51:07;;;;;;;5.07;3.43;;;20.10;99.90;;;;;;5058596;28;20464;-81
2021/07/20 11:53:40;;;;;;;6.57;3.90;;;20.30;99.90;;;;;;5058958;28;20492;-80
2021/07/20 11:56:18;;;;;;;3.60;3.27;;;20.40;99.90;;;;;;5061440;28;20497;-81
2021/07/20 11:59:22;;;;;;;6.77;4.40;;;20.50;99.90;;;;;;5069140;28;20482;-80
2021/07/20 12:02:36;;;;;;;7.67;3.77;;;20.60;99.90;;;;;;5064520;28;20430;-82
2021/07/20 12:05:26;;;;;;;10.23;4.87;;;20.70;99.90;;;;;;5017895;28;20479;-81
2021/07/20 12:07:57;;;;;;;6.80;4.60;;;21.00;99.90;;;;;;5056081;28;20454;-82
2021/07/20 12:10:38;;;;;;;4.60;4.20;;;21.00;99.90;;;;;;5058823;28;20931;-81
2021/07/20 12:13:08;;;;;;;4.33;3.90;;;20.90;99.90;;;;;;5076127;28;20444;-81
2021/07/20 12:15:38;;;;;;;4.07;3.70;;;20.90;99.90;;;;;;5062657;28;20481;-81
2021/07/20 12:18:05;;;;;;;5.97;3.77;;;20.30;99.90;;;;;;5059552;28;20507;-81
2021/07/20 12:20:34;;;;;;;4.77;4.10;;;20.70;99.90;;;;;;5059339;28;20556;-80
2021/07/20 12:23:03;;;;;;;5.57;4.13;;;20.70;99.90;;;;;;5059752;28;20450;-81
2021/07/20 12:25:31;;;;;;;6.27;5.30;;;20.60;99.90;;;;;;5059270;28;20447;-82
2021/07/20 12:28:00;;;;;;;5.50;4.43;;;20.20;99.90;;;;;;5059284;28;20469;-81
2021/07/20 12:30:28;;;;;;;7.60;4.70;;;20.20;99.90;;;;;;5059613;28;20438;-81
2021/07/20 12:32:56;;;;;;;5.10;4.17;;;20.20;99.90;;;;;;5059332;28;20481;-81
2021/07/20 12:35:25;;;;;;;6.60;3.70;;;20.20;99.90;;;;;;5057966;28;20784;-81
2021/07/20 12:38:05;;;;;;;8.03;4.00;;;20.20;99.90;;;;;;5060539;28;20453;-81
2021/07/20 12:40:33;;;;;;;4.27;3.87;;;20.10;99.90;;;;;;5059684;28;20430;-81
2021/07/20 12:43:11;;;;;;;6.83;3.83;;;20.10;99.90;;;;;;5063141;28;20461;-80
2021/07/20 12:45:40;;;;;;;4.93;4.17;;;20.00;99.90;;;;;;5066303;28;20446;-81
2021/07/20 12:48:20;;;;;;;4.20;3.87;;;20.00;99.90;;;;;;5064564;28;20453;-81
2021/07/20 12:50:47;;;;;;;4.20;3.30;;;19.90;99.90;;;;;;5065158;28;20480;-80
2021/07/20 12:53:15;;;;;;;6.03;4.47;;;19.90;99.90;;;;;;5066191;28;20465;-80
2021/07/20 12:55:45;;;;;;;6.23;3.77;;;20.10;99.90;;;;;;5067586;28;20577;-81
2021/07/20 12:58:12;;;;;;;4.13;3.03;;;20.10;99.90;;;;;;5066846;28;20478;-81
2021/07/20 13:00:40;;;;;;;3.77;3.40;;;19.90;99.90;;;;;;5066529;28;20450;-80
2021/07/20 13:03:08;;;;;;;3.70;3.40;;;20.10;99.90;;;;;;5065324;28;20454;-81
2021/07/20 13:05:37;;;;;;;6.37;4.20;;;20.20;99.90;;;;;;5067312;28;20447;-80